Time;durP1;ratioP1;P1;durP2;ratioP2;P2;SDS_P1;SDS_P2;PMS_P1;PMS_P2;Temp;Humidity;BMP_temperature;BMP_pressure;BME280_temperature;BME280_humidity;BME280_pressure;Samples;Min_cycle;Max_cycle;Signal;HPM_P1;HPM_P2
2022/02/25 06:47:50;;;;;;;4.90;1.77;;;;;;;;;;10542137;28;20388;-84
2022/02/25 06:53:17;;;;;;;8.70;2.70;;;;;;;;;;10527398;28;20086;-84
2022/02/25 06:58:46;;;;;;;4.40;1.33;;;;;;;;;;10500256;28;20087;-85
2022/02/25 07:04:41;;;;;;;5.32;1.92;;;;;;;;;;10461803;28;20034;-84
2022/02/25 07:15:27;;;;;;;5.18;1.98;;;;;;;;;;10459245;28;20076;-84
2022/02/25 07:20:58;;;;;;;11.05;3.30;;;;;;;;;;10441221;28;20065;-84
2022/02/25 07:26:12;;;;;;;;;;;;;;;;;;10470662;28;20031;-83
2022/02/25 07:31:13;;;;;;;9.20;2.50;;;;;;;;;;10529013;28;19909;-82
2022/02/25 07:47:43;;;;;;;7.60;2.03;;;;;;;;;;10545297;28;20044;-86
2022/02/25 07:52:59;;;;;;;8.55;2.38;;;;;;;;;;10511474;28;20513;-84
2022/02/25 08:03:42;;;;;;;;;;;;;;;;;;10520073;28;20032;-81
2022/02/25 08:08:43;;;;;;;5.30;2.05;;;;;;;;;;10497274;28;19914;-79
2022/02/25 08:13:44;;;;;;;6.97;2.42;;;;;;;;;;10493768;28;20082;-80
2022/02/25 08:18:45;;;;;;;6.55;2.10;;;;;;;;;;10497426;28;20108;-80
2022/02/25 08:23:46;;;;;;;5.82;2.67;;;;;;;;;;10515174;28;20024;-81
2022/02/25 08:28:47;;;;;;;5.85;2.30;;;;;;;;;;10500422;28;20032;-82
2022/02/25 08:33:48;;;;;;;6.22;1.90;;;;;;;;;;10498821;28;20032;-80
2022/02/25 08:38:49;;;;;;;;;;;;;;;;;;10520380;28;20017;-81
2022/02/25 08:43:50;;;;;;;7.45;2.60;;;;;;;;;;10503262;28;19968;-80
2022/02/25 08:48:51;;;;;;;5.95;1.90;;;;;;;;;;10500307;28;20035;-79
2022/02/25 08:53:52;;;;;;;7.38;2.28;;;;;;;;;;10497141;28;20028;-82
2022/02/25 08:58:53;;;;;;;6.75;2.20;;;;;;;;;;10498366;28;20040;-81
2022/02/25 09:03:54;;;;;;;;;;;;;;;;;;10520607;28;20031;-82
2022/02/25 09:08:55;;;;;;;5.97;2.22;;;;;;;;;;10498282;28;19904;-82
2022/02/25 09:13:56;;;;;;;6.55;2.35;;;;;;;;;;10490531;28;20057;-81
2022/02/25 09:18:57;;;;;;;9.15;2.80;;;;;;;;;;10493652;28;20052;-79
2022/02/25 09:23:58;;;;;;;7.10;2.13;;;;;;;;;;10517586;28;20056;-80
2022/02/25 09:28:59;;;;;;;;;;;;;;;;;;10501879;28;20540;-80
2022/02/25 09:34:00;;;;;;;5.25;2.15;;;;;;;;;;10497343;28;19961;-80
2022/02/25 09:39:01;;;;;;;8.32;2.40;;;;;;;;;;10493793;28;20086;-80
2022/02/25 09:44:02;;;;;;;7.53;3.83;;;;;;;;;;10496348;28;20123;-81
2022/02/25 09:49:03;;;;;;;5.30;2.42;;;;;;;;;;10517907;28;20032;-79
2022/02/25 09:54:04;;;;;;;;;;;;;;;;;;10519567;28;20021;-79
2022/02/25 09:59:05;;;;;;;7.93;3.25;;;;;;;;;;10498341;28;19904;-79
2022/02/25 10:04:10;;;;;;;9.10;2.97;;;;;;;;;;10514178;28;20024;-79
2022/02/25 10:09:12;;;;;;;9.45;3.88;;;;;;;;;;10513163;28;20032;-81
2022/02/25 10:14:13;;;;;;;5.93;2.67;;;;;;;;;;10497335;28;20024;-81
2022/02/25 10:19:27;;;;;;;5.25;2.83;;;;;;;;;;10513267;28;20379;-79
2022/02/25 10:24:28;;;;;;;6.88;2.95;;;;;;;;;;10511154;28;20390;-81
2022/02/25 10:29:29;;;;;;;11.55;4.28;;;;;;;;;;10495276;28;20070;-81
2022/02/25 10:34:30;;;;;;;10.50;3.25;;;;;;;;;;10492124;28;20386;-79
2022/02/25 10:39:31;;;;;;;;;;;;;;;;;;10488879;28;20442;-77
2022/02/25 10:44:40;;;;;;;5.00;2.20;;;;;;;;;;10484192;28;19913;-77
2022/02/25 10:49:41;;;;;;;6.95;2.85;;;;;;;;;;10501483;28;20031;-80
2022/02/25 10:54:42;;;;;;;5.47;2.65;;;;;;;;;;10507904;28;20039;-80
2022/02/25 10:59:43;;;;;;;8.88;3.72;;;;;;;;;;10489308;28;20104;-80
2022/02/25 11:05:05;;;;;;;6.20;2.40;;;;;;;;;;10486855;28;20371;-79
2022/02/25 11:10:06;;;;;;;;;;;;;;;;;;10487202;28;20028;-79
2022/02/25 11:15:09;;;;;;;7.38;2.90;;;;;;;;;;10488594;28;20349;-80
2022/02/25 11:20:10;;;;;;;6.68;2.80;;;;;;;;;;10486610;28;20029;-80
2022/02/25 11:25:15;;;;;;;8.23;3.22;;;;;;;;;;10509509;28;20043;-79
2022/02/25 11:30:28;;;;;;;6.85;3.50;;;;;;;;;;10537930;28;20035;-82
2022/02/25 11:35:38;;;;;;;8.48;3.10;;;;;;;;;;10525863;28;20021;-80
2022/02/25 11:40:45;;;;;;;6.82;2.75;;;;;;;;;;10497418;28;20028;-80
2022/02/25 11:45:48;;;;;;;8.07;3.22;;;;;;;;;;10511076;28;20040;-82
2022/02/25 11:50:50;;;;;;;7.03;2.90;;;;;;;;;;10491697;28;20082;-82
2022/02/25 11:55:53;;;;;;;7.15;2.90;;;;;;;;;;10511920;28;20021;-81
2022/02/25 12:01:24;;;;;;;4.20;2.30;;;;;;;;;;10494798;28;20024;-81
2022/02/25 12:06:29;;;;;;;5.88;2.17;;;;;;;;;;10476209;28;20032;-83
2022/02/25 12:11:32;;;;;;;5.85;2.08;;;;;;;;;;10512130;28;20028;-80
2022/02/25 12:16:34;;;;;;;7.03;3.03;;;;;;;;;;10516292;28;20427;-82
2022/02/25 12:21:42;;;;;;;5.40;1.75;;;;;;;;;;10495882;28;20164;-80
2022/02/25 12:26:43;;;;;;;5.05;1.80;;;;;;;;;;10497548;28;20096;-81
2022/02/25 12:31:44;;;;;;;;;;;;;;;;;;10497758;28;20032;-79
2022/02/25 12:36:45;;;;;;;5.43;1.40;;;;;;;;;;10502750;28;19909;-79
2022/02/25 12:41:48;;;;;;;4.18;1.38;;;;;;;;;;10503896;28;20028;-80
2022/02/25 12:46:54;;;;;;;4.43;1.40;;;;;;;;;;10501747;28;20096;-80
2022/02/25 12:51:57;;;;;;;4.20;1.33;;;;;;;;;;10498915;28;20101;-80
2022/02/25 12:57:00;;;;;;;4.75;1.27;;;;;;;;;;10495324;28;20025;-80
2022/02/25 13:02:03;;;;;;;5.05;1.70;;;;;;;;;;10495806;28;20025;-79
2022/02/25 13:07:04;;;;;;;4.57;1.27;;;;;;;;;;10494563;28;20043;-81
2022/02/25 13:12:07;;;;;;;3.80;1.20;;;;;;;;;;10514964;28;20032;-80
2022/02/25 13:17:08;;;;;;;4.13;1.48;;;;;;;;;;10494428;28;20056;-80
2022/02/25 13:22:17;;;;;;;5.50;2.20;;;;;;;;;;10511678;28;20027;-79
2022/02/25 13:27:24;;;;;;;3.97;1.60;;;;;;;;;;10494262;28;20060;-79
2022/02/25 13:32:29;;;;;;;7.85;2.40;;;;;;;;;;10494156;28;20077;-79
2022/02/25 13:37:29;;;;;;;6.90;1.92;;;;;;;;;;10510369;28;20025;-79
2022/02/25 13:42:35;;;;;;;7.35;2.25;;;;;;;;;;10494130;28;20035;-79
2022/02/25 13:52:58;;;;;;;8.15;2.10;;;;;;;;;;10517020;28;20036;-81
2022/02/25 13:58:00;;;;;;;10.48;5.43;;;;;;;;;;10493626;28;20376;-83
2022/02/25 14:03:10;;;;;;;5.65;2.00;;;;;;;;;;10492174;28;20402;-80
2022/02/25 14:08:18;;;;;;;6.07;1.75;;;;;;;;;;10510689;28;20150;-81
2022/02/25 14:13:29;;;;;;;8.15;2.10;;;;;;;;;;10509942;28;20021;-80
2022/02/25 14:18:30;;;;;;;7.32;1.77;;;;;;;;;;10489742;28;20024;-79
2022/02/25 14:23:31;;;;;;;6.65;1.50;;;;;;;;;;10491876;28;20417;-81
2022/02/25 14:28:35;;;;;;;4.53;1.58;;;;;;;;;;10492433;28;20063;-81
2022/02/25 14:33:47;;;;;;;5.05;2.03;;;;;;;;;;10490769;28;20025;-81
2022/02/25 14:38:49;;;;;;;6.82;1.92;;;;;;;;;;10489902;28;20024;-81
2022/02/25 14:43:51;;;;;;;4.93;1.30;;;;;;;;;;10490550;28;20047;-80
2022/02/25 14:48:52;;;;;;;3.33;1.00;;;;;;;;;;10490875;28;20042;-81
2022/02/25 14:53:53;;;;;;;1.85;0.75;;;;;;;;;;10511390;28;20055;-82
2022/02/25 14:58:54;;;;;;;2.45;1.10;;;;;;;;;;10492763;28;20109;-82
2022/02/25 15:03:55;;;;;;;5.25;1.10;;;;;;;;;;10509526;28;20032;-81
2022/02/25 15:08:56;;;;;;;2.35;0.80;;;;;;;;;;10499378;28;20064;-81
2022/02/25 15:13:57;;;;;;;3.28;1.08;;;;;;;;;;10500596;28;20117;-82
2022/02/25 15:18:58;;;;;;;1.75;0.70;;;;;;;;;;10503542;28;20046;-82
2022/02/25 15:23:59;;;;;;;1.35;0.75;;;;;;;;;;10522830;28;20378;-81
2022/02/25 15:29:00;;;;;;;3.25;0.75;;;;;;;;;;10534609;28;20385;-80
2022/02/25 15:34:02;;;;;;;2.83;0.90;;;;;;;;;;10523340;28;20059;-82
2022/02/25 15:39:04;;;;;;;2.25;1.00;;;;;;;;;;10527749;28;20043;-82
2022/02/25 15:44:08;;;;;;;2.05;0.93;;;;;;;;;;10527219;28;20099;-82
2022/02/25 15:49:09;;;;;;;2.17;0.73;;;;;;;;;;10527067;28;20036;-81
2022/02/25 15:54:13;;;;;;;;;;;;;;;;;;10523557;28;20048;-82
2022/02/25 15:59:14;;;;;;;2.20;0.80;;;;;;;;;;10511543;28;19905;-82
2022/02/25 16:04:15;;;;;;;2.03;0.65;;;;;;;;;;10522005;28;20116;-80
2022/02/25 16:09:16;;;;;;;2.83;1.30;;;;;;;;;;10541750;28;20039;-81
2022/02/25 16:14:17;;;;;;;;;;;;;;;;;;10523394;28;20020;-81
2022/02/25 16:19:18;;;;;;;2.25;0.73;;;;;;;;;;10517304;28;19926;-81
2022/02/25 16:24:19;;;;;;;;;;;;;;;;;;10523808;28;20032;-82
2022/02/25 16:29:20;;;;;;;2.33;0.80;;;;;;;;;;10514894;28;19947;-81
2022/02/25 16:34:21;;;;;;;;;;;;;;;;;;10523450;28;20178;-81
2022/02/25 16:39:22;;;;;;;3.03;1.20;;;;;;;;;;10524252;28;19972;-82
2022/02/25 16:44:23;;;;;;;;;;;;;;;;;;10509687;28;20063;-80
2022/02/25 16:49:24;;;;;;;1.85;0.60;;;;;;;;;;10536768;28;20369;-81
2022/02/25 16:54:25;;;;;;;3.35;1.27;;;;;;;;;;10530092;28;20030;-81
2022/02/25 16:59:28;;;;;;;;;;;;;;;;;;10508012;28;20015;-80
2022/02/25 17:04:29;;;;;;;3.70;1.20;;;;;;;;;;10541351;28;19911;-81
2022/02/25 17:09:30;;;;;;;;;;;;;;;;;;10508524;28;20028;-80
2022/02/25 17:14:31;;;;;;;3.67;1.02;;;;;;;;;;10520499;28;19936;-80
2022/02/25 17:19:36;;;;;;;;;;;;;;;;;;10517758;28;20032;-84
2022/02/25 17:25:07;;;;;;;3.88;1.30;;;;;;;;;;10528514;28;19911;-81
2022/02/25 17:30:28;;;;;;;5.22;1.20;;;;;;;;;;10484303;28;20055;-83
2022/02/25 17:35:57;;;;;;;2.50;1.17;;;;;;;;;;10517237;28;20056;-81
2022/02/25 17:40:58;;;;;;;3.30;1.30;;;;;;;;;;10488415;28;20032;-82
2022/02/25 17:45:59;;;;;;;;;;;;;;;;;;10513921;28;20060;-81
2022/02/25 17:52:01;;;;;;;3.13;1.05;;;;;;;;;;10509539;28;19916;-80
2022/02/25 17:57:02;;;;;;;1.95;0.82;;;;;;;;;;10498603;28;20111;-82
2022/02/25 18:02:03;;;;;;;3.40;1.10;;;;;;;;;;10514969;28;20553;-82
2022/02/25 18:07:15;;;;;;;2.72;1.20;;;;;;;;;;10514997;28;20052;-81
2022/02/25 18:41:18;;;;;;;;;;;;;;;;;;10088625;29;20033;-82
2022/02/25 18:46:19;;;;;;;3.00;1.00;;;;;;;;;;10306850;28;19916;-83
2022/02/25 18:51:20;;;;;;;;;;;;;;;;;;10506395;28;20025;-83
2022/02/25 18:56:24;;;;;;;6.30;1.83;;;;;;;;;;10505192;28;19908;-83
2022/02/25 19:01:25;;;;;;;2.35;1.00;;;;;;;;;;10507106;28;20032;-83
2022/02/25 19:06:26;;;;;;;;;;;;;;;;;;10506994;28;20584;-83
2022/02/25 19:11:27;;;;;;;2.80;1.15;;;;;;;;;;10505444;28;20316;-83
2022/02/25 19:16:28;;;;;;;3.17;1.08;;;;;;;;;;10525160;28;20052;-83
2022/02/25 19:21:29;;;;;;;3.58;1.30;;;;;;;;;;10506437;28;20054;-83
2022/02/25 19:26:30;;;;;;;;;;;;;;;;;;10508574;28;20058;-83
2022/02/25 19:31:31;;;;;;;2.97;1.08;;;;;;;;;;10523195;28;20363;-83
2022/02/25 19:36:33;;;;;;;;;;;;;;;;;;10507466;28;20039;-84
2022/02/25 19:41:34;;;;;;;2.97;1.00;;;;;;;;;;10508492;28;19908;-84
2022/02/25 19:46:38;;;;;;;;;;;;;;;;;;10508087;28;20032;-84
2022/02/25 19:51:39;;;;;;;3.45;1.20;;;;;;;;;;10509701;28;19942;-83
2022/02/25 19:56:40;;;;;;;;;;;;;;;;;;10514171;28;20063;-83
2022/02/25 20:01:42;;;;;;;5.18;1.40;;;;;;;;;;10514656;28;19999;-83
2022/02/25 20:06:43;;;;;;;2.88;1.40;;;;;;;;;;10527671;28;20032;-83
2022/02/25 20:11:44;;;;;;;;;;;;;;;;;;10510218;28;20033;-83
2022/02/25 20:16:46;;;;;;;4.35;1.63;;;;;;;;;;10508841;28;19915;-83
2022/02/25 20:21:47;;;;;;;4.35;1.33;;;;;;;;;;10511135;28;20028;-83
2022/02/25 20:26:49;;;;;;;3.55;1.20;;;;;;;;;;10508667;28;20020;-83
2022/02/25 20:31:50;;;;;;;3.08;1.15;;;;;;;;;;10507723;28;20097;-82
2022/02/25 20:36:51;;;;;;;;;;;;;;;;;;10509091;28;20051;-84
2022/02/25 20:41:54;;;;;;;3.15;1.17;;;;;;;;;;10517148;28;19930;-84
2022/02/25 20:46:56;;;;;;;3.03;1.50;;;;;;;;;;10518985;28;20040;-83
2022/02/25 20:51:57;;;;;;;4.57;1.65;;;;;;;;;;10495691;28;20027;-84
2022/02/25 20:56:58;;;;;;;3.92;1.35;;;;;;;;;;10508884;28;20035;-83
2022/02/25 21:01:59;;;;;;;3.88;1.40;;;;;;;;;;10510533;28;20028;-84
2022/02/25 21:07:01;;;;;;;3.63;1.40;;;;;;;;;;10516082;28;20032;-83
2022/02/25 21:12:02;;;;;;;2.60;1.20;;;;;;;;;;10512575;28;20033;-83
2022/02/25 21:17:03;;;;;;;5.53;1.73;;;;;;;;;;10509900;28;20028;-83
2022/02/25 21:22:04;;;;;;;3.55;1.23;;;;;;;;;;10509320;28;20394;-84
2022/02/25 21:27:05;;;;;;;;;;;;;;;;;;10510366;28;20024;-84
2022/02/25 21:32:06;;;;;;;4.80;1.50;;;;;;;;;;10508574;28;19905;-84
2022/02/25 21:37:07;;;;;;;3.60;1.38;;;;;;;;;;10490412;23;20046;-82
2022/02/25 21:42:13;;;;;;;4.10;1.60;;;;;;;;;;10367500;28;20022;-82
2022/02/25 21:47:14;;;;;;;4.28;1.60;;;;;;;;;;10367517;28;20033;-82
2022/02/25 21:52:15;;;;;;;3.72;1.50;;;;;;;;;;10366748;28;20239;-82
2022/02/25 21:57:17;;;;;;;;;;;;;;;;;;10367241;28;20042;-82
2022/02/25 22:02:19;;;;;;;3.42;1.50;;;;;;;;;;10383046;28;19909;-81
2022/02/25 22:07:20;;;;;;;4.43;1.77;;;;;;;;;;10364199;28;20022;-82
2022/02/25 22:12:24;;;;;;;;;;;;;;;;;;10364846;28;20054;-82
2022/02/25 22:17:28;;;;;;;3.65;1.40;;;;;;;;;;10379987;28;20326;-82
2022/02/25 22:22:36;;;;;;;3.70;1.55;;;;;;;;;;10383785;28;20518;-82
2022/02/25 22:27:42;;;;;;;3.80;1.40;;;;;;;;;;10381809;28;20052;-82
2022/02/25 22:32:43;;;;;;;5.38;1.83;;;;;;;;;;10371269;28;20026;-81
2022/02/25 22:37:44;;;;;;;5.20;1.75;;;;;;;;;;10385110;28;20030;-82
2022/02/25 22:42:46;;;;;;;;;;;;;;;;;;10385616;28;20102;-82
2022/02/25 22:47:48;;;;;;;3.92;1.73;;;;;;;;;;10370030;28;19932;-82
2022/02/25 23:03:30;;;;;;;3.47;1.52;;;;;;;;;;10382708;28;20093;-82
2022/02/25 23:08:31;;;;;;;;;;;;;;;;;;10364356;28;20403;-82
2022/02/25 23:13:32;;;;;;;4.88;1.40;;;;;;;;;;10363548;28;19909;-82
2022/02/25 23:18:36;;;;;;;6.45;1.90;;;;;;;;;;10380240;28;20468;-82
2022/02/25 23:23:38;;;;;;;;;;;;;;;;;;10362236;28;20030;-82
2022/02/25 23:28:44;;;;;;;;;;;;;;;;;;10385522;28;20314;-81
2022/02/25 23:33:48;;;;;;;;;;;;;;;;;;10388501;28;20051;-81
2022/02/25 23:38:50;;;;;;;;;;;;;;;;;;10388111;28;20000;-82
2022/02/25 23:49:17;;;;;;;;;;;;;;;;;;10386941;28;19909;-81
2022/02/25 23:54:18;;;;;;;;;;;;;;;;;;10368629;28;20379;-81
2022/02/25 23:59:19;;;;;;;;;;;;;;;;;;10386352;28;19905;-81
